createdAt,value
2023-02-19T00:14:56.939Z,1000.4
2023-02-19T00:30:16.400Z,1000.2
2023-02-19T00:45:35.862Z,1000.1
2023-02-19T01:00:55.341Z,999.9
2023-02-19T01:16:14.818Z,1000
2023-02-19T01:31:34.268Z,999.8
2023-02-19T01:46:53.760Z,999.4
2023-02-19T02:02:13.227Z,999.2
2023-02-19T02:17:32.691Z,998.9
2023-02-19T02:32:52.150Z,998.5
2023-02-19T02:48:11.633Z,998.2
2023-02-19T03:03:31.110Z,998.1
2023-02-19T03:18:49.592Z,997.9
2023-02-19T03:34:09.060Z,997.7
2023-02-19T03:49:28.528Z,997.8
2023-02-19T04:04:47.991Z,997.6
2023-02-19T04:20:07.462Z,997.7
2023-02-19T04:35:26.934Z,997.8
2023-02-19T04:50:46.414Z,998
2023-02-19T05:06:04.873Z,997.8
2023-02-19T05:21:23.379Z,997.9
2023-02-19T05:36:42.840Z,998.1
2023-02-19T05:52:02.319Z,998.1
2023-02-19T06:07:21.752Z,998.2
2023-02-19T06:22:41.180Z,998.4
2023-02-19T06:38:00.598Z,998.6
2023-02-19T06:53:20.025Z,999.3
2023-02-19T07:08:39.452Z,999.7
2023-02-19T07:23:58.877Z,1000.2
2023-02-19T07:39:18.319Z,1000.6
2023-02-19T07:54:37.741Z,1001.2
2023-02-19T08:09:57.184Z,1001.5
2023-02-19T08:25:16.596Z,1001.9
2023-02-19T08:40:35.055Z,1002.4
2023-02-19T08:55:54.453Z,1002.8
2023-02-19T09:11:13.913Z,1003.2
2023-02-19T09:26:33.317Z,1003.5
2023-02-19T09:41:52.769Z,1003.7
2023-02-19T09:57:12.178Z,1004
2023-02-19T10:12:31.623Z,1004.2
2023-02-19T10:27:50.081Z,1004.6
2023-02-19T10:43:09.635Z,1004.9
2023-02-19T10:58:29.061Z,1005.1
2023-02-19T11:13:48.476Z,1005.4
2023-02-19T11:29:07.892Z,1005.6
2023-02-19T11:44:27.336Z,1005.8
2023-02-19T11:59:46.755Z,1006
2023-02-19T12:15:06.198Z,1005.8
2023-02-19T12:30:25.605Z,1006
2023-02-19T12:45:45.067Z,1006
2023-02-19T13:01:04.491Z,1006.2
2023-02-19T13:16:23.908Z,1006.4
2023-02-19T13:31:42.347Z,1006.4
2023-02-19T14:02:21.197Z,1006.7
2023-02-19T14:17:40.624Z,1006.8
2023-02-19T14:33:00.055Z,1006.8
2023-02-19T14:48:19.490Z,1006.9
2023-02-19T15:03:38.910Z,1006.8
2023-02-19T15:18:58.342Z,1006.9
2023-02-19T15:34:17.760Z,1007.1
2023-02-19T15:49:37.203Z,1007.2
2023-02-19T16:04:56.627Z,1007.2
2023-02-19T16:20:15.084Z,1007.4
2023-02-19T16:35:33.522Z,1007.7
2023-02-19T16:50:52.968Z,1007.8
2023-02-19T17:06:12.445Z,1008.1
2023-02-19T17:21:31.922Z,1008.3
2023-02-19T17:36:51.392Z,1008.5
2023-02-19T17:52:10.851Z,1008.5
2023-02-19T18:07:30.340Z,1008.5
2023-02-19T18:22:49.822Z,1008.8
2023-02-19T18:38:09.289Z,1008.8
2023-02-19T18:53:28.759Z,1008.9
2023-02-19T19:08:48.242Z,1008.9
2023-02-19T19:24:07.719Z,1009
2023-02-19T19:39:27.193Z,1009
2023-02-19T19:54:45.682Z,1009
2023-02-19T20:10:05.150Z,1008.8
2023-02-19T20:25:24.633Z,1008.9
2023-02-19T20:40:44.121Z,1009
2023-02-19T20:56:03.596Z,1008.9
2023-02-19T21:11:23.000Z,1009.1
2023-02-19T21:26:42.536Z,1009.2
2023-02-19T21:42:02.031Z,1009.2
2023-02-19T21:57:21.498Z,1009.1
2023-02-19T22:12:40.973Z,1009.1
2023-02-19T22:28:00.439Z,1008.9
2023-02-19T22:43:19.927Z,1008.7
2023-02-19T22:58:39.382Z,1008.6
2023-02-19T23:13:57.896Z,1008.7
2023-02-19T23:29:17.362Z,1008.6
2023-02-19T23:44:36.836Z,1008.6
2023-02-19T23:59:56.304Z,1008.4
